Impacts METAR Board
IDs:

KDTW - Detroit Metro/Wayne, MI, US

Updated at: 2100 UTC 08 Feb 2023
Potential Impact None Slight Moderate High
Time 08/09Z 08/10Z 08/11Z 08/12Z 08/13Z 08/14Z 08/15Z 08/16Z 08/17Z 08/18Z 08/19Z 08/20Z 08/21Z
Temp37 36 34 32 31 35 37 39 43 45 45 45 46
Dewpt27 28 28 27 27 29 30 30 31 30 30 30 30
Altim30.21 30.24 30.26 30.27 30.28 30.28 30.29 30.31 30.30 30.29 30.26 30.23 30.24
VIS8 8 7 7 5 5 5 5 6 7 7 7 6
CIG32 28 70 65 220 220 220 -- -- 250 250 250 220
CoverOVCOVCOVCOVCBKNBKNBKNCLRCLRBKNOVCOVCOVC
FltCatVFRMVFRVFRVFRMVFRMVFRMVFRMVFRVFRVFRVFRVFRVFR
WX--------BRHZHZHZHZ------HZ
WDir2402402302302402602301902102101901600
WSpd6 8 7 5 5 5 5 6 5 8 4 4 0
WGst-- -- -- -- -- -- -- -- -- 16 -- -- --
Raw hourly METARs
KDTW 080853Z 24006KT 8SM OVC032 03/M03 A3021 RMK AO2 SLP233 T00281028 51009
KDTW 080953Z 24008KT 8SM OVC028 02/M02 A3024 RMK AO2 SLP245 T00221022
KDTW 081053Z 23007KT 7SM SCT028 BKN070 OVC220 01/M02 A3026 RMK AO2 SLP252 T00111022
KDTW 081153Z 23005KT 7SM FEW028 BKN065 OVC220 00/M03 A3027 RMK AO2 SLP255 T00001028 10028 20000 51009 PNO $
KDTW 081253Z 24005KT 5SM BR FEW028 SCT065 BKN220 M01/M03 A3028 RMK AO2 SLP261 T10061028 PNO $
KDTW 081353Z 26005KT 5SM HZ FEW065 BKN220 02/M02 A3028 RMK AO2 SLP260 T00171017 PNO
KDTW 081453Z 23005KT 5SM HZ FEW065 BKN220 03/M01 A3029 RMK AO2 SLP263 T00281011 51009 PNO
KDTW 081553Z 19006KT 5SM HZ CLR 04/M01 A3031 RMK AO2 SLP269 T00391011 PNO
KDTW 081653Z 21005KT 6SM HZ CLR 06/M01 A3030 RMK AO2 SLP267 T00611006 PNO
KDTW 081753Z COR 21008G16KT 7SM FEW050 BKN250 07/M01 A3029 RMK SLPNO
KDTW 081853Z COR 19004KT 7SM FEW050 OVC250 07/M01 A3026 RMK SLPNO
KDTW 081953Z COR 16004KT 7SM FEW050 OVC250 07/M01 A3023 RMK SLPNO
KDTW 082053Z COR 00000KT 6SM HZ OVC220 08/M01 A3024 RMK SLPNO



Page loaded:  21:08 UTC  |   01:08 PM Pacific  |   02:08 PM Mountain  |   03:08 PM Central  |   04:08 PM Eastern

 

ADVISORIES

FORECASTS

FORECASTS

OBSERVATIONS

USER TOOLS

ABOUT US